Time;durP1;ratioP1;P1;durP2;ratioP2;P2;SDS_P1;SDS_P2;PMS_P1;PMS_P2;Temp;Humidity;BMP_temperature;BMP_pressure;BME280_temperature;BME280_humidity;BME280_pressure;Samples;Min_cycle;Max_cycle;Signal;HPM_P1;HPM_P2
2021/09/04 00:00:11;;;;;;;9.20;3.38;;;14.20;94.50;;;;;;5060306;28;20532;-69
2021/09/04 00:02:37;;;;;;;8.52;3.30;;;14.20;94.60;;;;;;5062070;28;20078;-69
2021/09/04 00:05:05;;;;;;;7.97;3.13;;;14.10;94.70;;;;;;5064168;28;20028;-69
2021/09/04 00:07:32;;;;;;;7.45;3.40;;;14.10;94.80;;;;;;5064021;28;20041;-69
2021/09/04 00:09:58;;;;;;;10.15;2.95;;;14.10;94.70;;;;;;5061643;28;20021;-69
2021/09/04 00:12:26;;;;;;;7.90;3.65;;;14.10;94.70;;;;;;5061251;28;20036;-69
2021/09/04 00:14:52;;;;;;;8.40;3.10;;;14.10;94.80;;;;;;5060748;28;20090;-69
2021/09/04 00:17:18;;;;;;;8.25;3.05;;;14.00;94.60;;;;;;5063622;28;20039;-69
2021/09/04 00:19:44;;;;;;;8.30;3.03;;;14.00;94.70;;;;;;5060223;28;20036;-69
2021/09/04 00:22:09;;;;;;;7.80;3.35;;;14.00;94.60;;;;;;5062597;28;20035;-69
2021/09/04 00:24:35;;;;;;;6.60;3.35;;;14.00;94.60;;;;;;5062436;28;20095;-69
2021/09/04 00:27:01;;;;;;;7.15;3.13;;;14.00;94.70;;;;;;5061401;28;20418;-69
2021/09/04 00:29:27;;;;;;;9.48;3.42;;;14.00;94.60;;;;;;5061159;28;20462;-69
2021/09/04 00:31:53;;;;;;;9.85;3.38;;;13.90;94.80;;;;;;5060002;28;20931;-69
2021/09/04 00:34:19;;;;;;;8.90;3.10;;;13.80;94.70;;;;;;5060666;28;20111;-69
2021/09/04 00:36:44;;;;;;;7.65;3.17;;;13.90;94.80;;;;;;5059922;28;20025;-69
2021/09/04 00:39:10;;;;;;;9.68;3.30;;;13.80;94.90;;;;;;5042317;28;20497;-69
2021/09/04 00:41:36;;;;;;;10.27;3.63;;;13.80;94.80;;;;;;5061210;28;20032;-69
2021/09/04 00:44:03;;;;;;;9.68;3.28;;;13.80;94.90;;;;;;5061749;28;20040;-69
2021/09/04 00:46:30;;;;;;;9.63;3.55;;;13.70;95.00;;;;;;5064362;28;20037;-69
2021/09/04 00:48:56;;;;;;;9.95;3.40;;;13.80;95.00;;;;;;5060699;28;20067;-69
2021/09/04 00:51:22;;;;;;;6.30;2.80;;;13.80;95.00;;;;;;5060343;28;20028;-69
2021/09/04 00:53:49;;;;;;;6.70;2.92;;;13.80;95.00;;;;;;5062213;28;20040;-69
2021/09/04 00:56:16;;;;;;;12.95;3.75;;;13.80;94.90;;;;;;5062534;28;20033;-69
2021/09/04 00:58:42;;;;;;;8.88;3.00;;;13.90;95.00;;;;;;5060709;28;20039;-70
2021/09/04 01:01:08;;;;;;;9.63;3.15;;;13.90;94.80;;;;;;5062900;28;20059;-69
2021/09/04 01:03:34;;;;;;;5.78;2.85;;;14.00;94.60;;;;;;5060745;28;20056;-70
2021/09/04 01:06:00;;;;;;;6.57;2.97;;;14.00;94.60;;;;;;5060749;28;20025;-69
2021/09/04 01:08:26;;;;;;;11.23;3.30;;;14.00;94.70;;;;;;5063253;28;20040;-69
2021/09/04 01:10:53;;;;;;;7.35;3.30;;;14.00;94.60;;;;;;5060999;28;20498;-69
2021/09/04 01:13:20;;;;;;;9.07;3.03;;;14.00;94.50;;;;;;5062640;28;20115;-69
2021/09/04 01:15:46;;;;;;;8.98;2.90;;;14.00;94.60;;;;;;5060090;28;21809;-69
2021/09/04 01:18:12;;;;;;;7.15;3.22;;;14.00;94.50;;;;;;5061827;28;20029;-69
2021/09/04 01:20:38;;;;;;;8.93;2.70;;;14.00;94.50;;;;;;5061784;28;20021;-69
2021/09/04 01:23:04;;;;;;;6.20;2.20;;;14.00;94.60;;;;;;5060438;28;20081;-69
2021/09/04 01:25:32;;;;;;;8.05;3.17;;;14.10;94.50;;;;;;5060881;28;20422;-69
2021/09/04 01:28:00;;;;;;;4.53;2.50;;;14.10;94.50;;;;;;5059906;28;20467;-69
2021/09/04 01:30:27;;;;;;;7.00;2.90;;;14.10;94.40;;;;;;5058868;28;20123;-69
2021/09/04 01:32:52;;;;;;;4.07;2.22;;;14.10;94.30;;;;;;5060699;28;20032;-69
2021/09/04 01:35:22;;;;;;;6.15;2.15;;;14.20;94.10;;;;;;5059314;28;20025;-69
2021/09/04 01:37:48;;;;;;;9.43;2.97;;;14.20;94.10;;;;;;5058558;28;20033;-69
2021/09/04 01:40:15;;;;;;;9.50;3.25;;;14.20;94.10;;;;;;5061061;28;20408;-69
2021/09/04 01:42:43;;;;;;;5.72;2.50;;;14.10;94.10;;;;;;5061191;28;20032;-69
2021/09/04 01:45:09;;;;;;;5.55;2.50;;;14.10;94.30;;;;;;5060200;28;20544;-69
2021/09/04 01:47:35;;;;;;;8.40;2.67;;;14.10;94.20;;;;;;5056739;28;20040;-69
2021/09/04 01:50:02;;;;;;;6.72;2.53;;;14.20;94.20;;;;;;5061942;28;20033;-69
2021/09/04 01:52:28;;;;;;;9.73;3.33;;;14.20;94.10;;;;;;5061703;28;20485;-69
2021/09/04 01:54:54;;;;;;;8.82;2.25;;;14.20;94.00;;;;;;5062893;28;20044;-70
2021/09/04 01:57:20;;;;;;;10.02;2.78;;;14.30;94.00;;;;;;5060464;28;20027;-70
2021/09/04 01:59:46;;;;;;;7.85;2.38;;;14.30;93.80;;;;;;5061043;28;20097;-69
2021/09/04 02:02:12;;;;;;;8.52;2.83;;;14.30;93.80;;;;;;5061931;28;20450;-69
2021/09/04 02:04:37;;;;;;;5.95;2.25;;;14.30;93.80;;;;;;5058375;28;20024;-69
2021/09/04 02:07:04;;;;;;;8.93;2.58;;;14.30;93.70;;;;;;5059492;28;20035;-69
2021/09/04 02:09:30;;;;;;;5.32;2.30;;;14.30;93.80;;;;;;5061941;28;20036;-69
2021/09/04 02:11:56;;;;;;;9.90;3.05;;;14.30;93.80;;;;;;5061241;28;20116;-69
2021/09/04 02:14:22;;;;;;;5.55;2.42;;;14.30;93.60;;;;;;5066472;28;20112;-69
2021/09/04 02:16:48;;;;;;;10.60;2.92;;;14.40;93.80;;;;;;5063663;28;20078;-69
2021/09/04 02:19:14;;;;;;;6.25;2.08;;;14.40;93.60;;;;;;5063289;28;20037;-69
2021/09/04 02:21:39;;;;;;;6.32;2.15;;;14.40;93.70;;;;;;5062621;28;20033;-69
2021/09/04 02:24:05;;;;;;;6.82;1.90;;;14.40;93.60;;;;;;5064002;28;20042;-69
2021/09/04 02:26:31;;;;;;;5.53;2.20;;;14.40;93.60;;;;;;5063130;28;20067;-69
2021/09/04 02:28:57;;;;;;;5.50;2.33;;;14.50;93.60;;;;;;5063456;28;20441;-69
2021/09/04 02:31:24;;;;;;;3.83;2.20;;;14.50;93.50;;;;;;5065379;28;20405;-70
2021/09/04 02:33:51;;;;;;;4.38;1.92;;;14.50;93.50;;;;;;5065291;28;20029;-69
2021/09/04 02:36:17;;;;;;;4.75;1.92;;;14.50;93.40;;;;;;5063882;28;20565;-69
2021/09/04 02:38:43;;;;;;;10.57;2.10;;;14.50;93.40;;;;;;5059806;28;20081;-68
2021/09/04 02:41:09;;;;;;;6.20;2.10;;;14.50;93.40;;;;;;5060150;28;20028;-69
2021/09/04 02:43:34;;;;;;;7.35;2.40;;;14.60;93.40;;;;;;5065421;28;20028;-69
2021/09/04 02:46:00;;;;;;;4.03;2.20;;;14.60;93.30;;;;;;5069920;28;20103;-69
2021/09/04 02:48:26;;;;;;;7.63;2.72;;;14.70;93.20;;;;;;5063669;28;20025;-69
2021/09/04 02:50:51;;;;;;;4.70;2.60;;;14.60;93.20;;;;;;5063766;28;20075;-69
2021/09/04 02:53:17;;;;;;;4.50;2.72;;;14.70;93.20;;;;;;5063484;28;20032;-70
2021/09/04 02:55:43;;;;;;;6.40;3.08;;;14.70;93.20;;;;;;5061653;28;20020;-70
2021/09/04 02:58:08;;;;;;;5.30;3.17;;;14.70;93.10;;;;;;5062698;28;20040;-67
2021/09/04 03:00:34;;;;;;;9.27;4.30;;;14.70;93.20;;;;;;5062536;28;20028;-70
2021/09/04 03:03:00;;;;;;;6.68;3.45;;;14.70;93.10;;;;;;5064172;28;20037;-68
2021/09/04 03:05:26;;;;;;;6.15;3.70;;;14.70;93.10;;;;;;5062930;28;20075;-68
2021/09/04 03:07:51;;;;;;;9.20;4.28;;;14.70;93.00;;;;;;5061065;28;20040;-68
2021/09/04 03:10:18;;;;;;;11.05;4.30;;;14.70;92.90;;;;;;5063862;28;20044;-68
2021/09/04 03:12:44;;;;;;;9.13;3.97;;;14.70;92.90;;;;;;5061513;28;20036;-68
2021/09/04 03:15:10;;;;;;;7.70;3.72;;;14.80;92.90;;;;;;5061855;28;20031;-68
2021/09/04 03:17:36;;;;;;;7.07;3.78;;;14.80;92.90;;;;;;5061260;28;20029;-68
2021/09/04 03:20:02;;;;;;;6.90;3.85;;;14.80;92.80;;;;;;5063731;28;20035;-68
2021/09/04 03:22:28;;;;;;;8.88;3.75;;;14.80;92.80;;;;;;5065900;28;20032;-68
2021/09/04 03:24:53;;;;;;;6.85;4.07;;;14.80;92.70;;;;;;5062641;28;20382;-68
2021/09/04 03:27:19;;;;;;;7.03;4.07;;;14.80;92.80;;;;;;5063218;28;20035;-68
2021/09/04 03:29:45;;;;;;;7.15;3.55;;;14.80;92.80;;;;;;5061106;28;20025;-68
2021/09/04 03:32:11;;;;;;;8.55;3.63;;;14.80;92.70;;;;;;5062710;28;20036;-68
2021/09/04 03:34:36;;;;;;;10.00;4.03;;;14.80;92.70;;;;;;5061920;28;20059;-67
2021/09/04 03:37:02;;;;;;;7.63;3.78;;;14.80;92.80;;;;;;5062217;28;20027;-68
2021/09/04 03:39:28;;;;;;;7.75;3.70;;;14.90;92.70;;;;;;5065207;28;20028;-67
2021/09/04 03:41:53;;;;;;;6.53;3.10;;;14.90;92.80;;;;;;5063748;28;20036;-68
2021/09/04 03:44:19;;;;;;;5.43;3.30;;;14.90;92.80;;;;;;5064171;28;20040;-68
2021/09/04 03:46:45;;;;;;;5.72;3.30;;;14.90;92.70;;;;;;5060157;28;20040;-68
2021/09/04 03:49:11;;;;;;;7.15;3.40;;;14.90;92.70;;;;;;5062117;28;20036;-68
2021/09/04 03:51:36;;;;;;;6.53;3.50;;;14.90;92.80;;;;;;5062878;28;20037;-69
2021/09/04 03:54:02;;;;;;;6.15;3.28;;;14.90;92.70;;;;;;5062746;28;20497;-68
2021/09/04 03:56:28;;;;;;;7.28;3.80;;;14.90;92.70;;;;;;5060488;28;20035;-68
2021/09/04 03:58:53;;;;;;;5.07;3.42;;;14.90;92.70;;;;;;5061596;28;20143;-68
2021/09/04 04:01:20;;;;;;;6.18;3.05;;;14.90;92.70;;;;;;5059703;28;20020;-68
2021/09/04 04:03:46;;;;;;;5.07;2.85;;;14.90;92.70;;;;;;5063112;28;20030;-70
2021/09/04 04:06:11;;;;;;;5.63;3.20;;;15.00;92.70;;;;;;5064347;28;20025;-67
2021/09/04 04:08:37;;;;;;;5.53;3.28;;;15.00;92.60;;;;;;5055825;28;20032;-68
2021/09/04 04:11:11;;;;;;;7.22;3.30;;;14.90;92.50;;;;;;5059908;28;20028;-68
2021/09/04 04:13:37;;;;;;;10.93;3.95;;;14.90;92.30;;;;;;5060589;28;20470;-68
2021/09/04 04:16:04;;;;;;;8.30;3.35;;;14.80;92.20;;;;;;5059135;28;20033;-69
2021/09/04 04:18:31;;;;;;;7.25;3.58;;;14.90;92.40;;;;;;5057358;28;20096;-68
2021/09/04 04:20:58;;;;;;;6.55;3.40;;;14.90;92.30;;;;;;5058264;28;20036;-70
2021/09/04 04:23:24;;;;;;;4.93;3.22;;;14.90;92.40;;;;;;5059358;28;20115;-70
2021/09/04 04:25:50;;;;;;;10.02;4.30;;;14.90;92.40;;;;;;5058034;28;20147;-68
2021/09/04 04:28:17;;;;;;;7.18;3.97;;;14.90;92.30;;;;;;5055852;28;20078;-68
2021/09/04 04:30:44;;;;;;;9.13;3.70;;;14.90;92.30;;;;;;5061161;28;20343;-68
2021/09/04 04:33:09;;;;;;;9.13;3.75;;;14.90;92.40;;;;;;5056478;28;20090;-68
2021/09/04 04:35:35;;;;;;;6.50;3.70;;;14.90;92.30;;;;;;5056464;28;20028;-68
2021/09/04 04:38:01;;;;;;;8.63;4.50;;;14.90;92.30;;;;;;5053948;28;20040;-68
2021/09/04 04:40:27;;;;;;;8.32;4.25;;;15.00;92.30;;;;;;5062499;28;20032;-67
2021/09/04 04:42:52;;;;;;;6.82;4.10;;;15.00;92.20;;;;;;5058639;28;20044;-69
2021/09/04 04:45:18;;;;;;;6.85;3.97;;;14.90;92.10;;;;;;5051164;28;20148;-67
2021/09/04 04:47:44;;;;;;;10.27;4.13;;;15.00;92.20;;;;;;5053557;28;20024;-69
2021/09/04 04:50:11;;;;;;;9.05;4.35;;;15.00;92.20;;;;;;5054256;28;20035;-70
2021/09/04 04:52:37;;;;;;;6.97;3.92;;;14.90;92.20;;;;;;5052714;28;20635;-71
2021/09/04 04:55:03;;;;;;;7.88;4.22;;;15.00;92.10;;;;;;5055027;28;20037;-70
2021/09/04 04:57:29;;;;;;;13.77;5.03;;;14.90;92.00;;;;;;5051944;28;20556;-70
2021/09/04 04:59:55;;;;;;;7.80;4.47;;;14.90;91.80;;;;;;5059013;28;20033;-69
2021/09/04 05:02:20;;;;;;;9.77;5.13;;;14.90;91.90;;;;;;5052904;28;20039;-69
2021/09/04 05:04:46;;;;;;;9.00;4.80;;;14.90;91.70;;;;;;5054392;28;20581;-69
2021/09/04 05:07:12;;;;;;;10.25;5.28;;;14.90;91.80;;;;;;5055219;28;20044;-69
2021/09/04 05:09:37;;;;;;;9.77;5.38;;;15.00;91.70;;;;;;5060694;28;20626;-69
2021/09/04 05:12:03;;;;;;;11.00;5.13;;;15.00;91.50;;;;;;5059956;28;20025;-69
2021/09/04 05:14:29;;;;;;;10.07;5.10;;;15.00;91.50;;;;;;5059651;28;20024;-69
2021/09/04 05:16:56;;;;;;;15.48;6.57;;;15.00;91.60;;;;;;5055512;28;20063;-69
2021/09/04 05:19:21;;;;;;;11.95;6.65;;;15.00;91.10;;;;;;5061747;28;20036;-69
2021/09/04 05:21:47;;;;;;;15.98;7.65;;;15.00;91.10;;;;;;5060644;28;20039;-70
2021/09/04 05:24:13;;;;;;;16.20;7.18;;;15.00;90.70;;;;;;5062082;28;20036;-69
2021/09/04 05:26:38;;;;;;;12.90;6.57;;;15.10;90.90;;;;;;5062097;28;20028;-69
2021/09/04 05:29:04;;;;;;;13.95;6.82;;;15.10;90.80;;;;;;5060175;28;20036;-70
2021/09/04 05:31:30;;;;;;;11.88;6.95;;;15.10;90.60;;;;;;5060256;28;20040;-70
2021/09/04 05:33:56;;;;;;;13.48;6.95;;;15.10;90.60;;;;;;5060750;28;20017;-70
2021/09/04 05:36:22;;;;;;;14.63;6.88;;;15.10;90.40;;;;;;5060397;28;20060;-69
2021/09/04 05:38:48;;;;;;;14.48;7.40;;;15.00;90.50;;;;;;5058776;28;20110;-68
2021/09/04 05:41:14;;;;;;;12.70;7.15;;;15.00;90.60;;;;;;5082281;28;20066;-68
2021/09/04 05:43:39;;;;;;;17.40;7.55;;;15.10;90.70;;;;;;5059437;28;20035;-69
2021/09/04 05:46:05;;;;;;;15.05;6.53;;;15.10;91.00;;;;;;5064494;28;20120;-69
2021/09/04 05:48:31;;;;;;;11.10;6.05;;;15.30;91.10;;;;;;5061596;28;20120;-69
2021/09/04 05:50:59;;;;;;;16.42;6.70;;;15.50;91.50;;;;;;5060741;28;20028;-69
2021/09/04 05:53:25;;;;;;;13.00;7.72;;;15.70;90.50;;;;;;5062348;28;20024;-69
2021/09/04 05:55:51;;;;;;;12.13;7.85;;;15.70;90.10;;;;;;5063230;28;20021;-69
2021/09/04 05:58:17;;;;;;;14.25;7.47;;;15.60;89.50;;;;;;5063557;28;20055;-71
2021/09/04 06:00:42;;;;;;;17.88;7.63;;;15.60;89.90;;;;;;5064133;28;20132;-70
2021/09/04 06:03:08;;;;;;;13.75;6.72;;;15.60;89.90;;;;;;5063189;28;20032;-69
2021/09/04 06:05:35;;;;;;;11.70;6.63;;;15.60;90.00;;;;;;5067189;28;20115;-68
2021/09/04 06:08:01;;;;;;;14.07;7.75;;;15.60;90.10;;;;;;5063132;28;20430;-69
2021/09/04 06:10:27;;;;;;;14.75;7.13;;;15.60;90.10;;;;;;5064900;28;20037;-68
2021/09/04 06:12:55;;;;;;;16.48;7.68;;;15.60;90.10;;;;;;5065264;28;20033;-69
2021/09/04 06:15:21;;;;;;;14.70;7.03;;;15.60;90.10;;;;;;5063993;28;20437;-69
2021/09/04 06:17:47;;;;;;;16.77;7.53;;;15.60;89.90;;;;;;5061564;28;20100;-69
2021/09/04 06:20:12;;;;;;;12.30;6.75;;;15.60;89.60;;;;;;5064843;28;20508;-69
2021/09/04 06:22:38;;;;;;;19.13;8.50;;;15.50;89.50;;;;;;5063811;28;20028;-69
2021/09/04 06:25:04;;;;;;;13.82;7.35;;;15.50;89.50;;;;;;5064876;28;20029;-69
2021/09/04 06:27:31;;;;;;;13.02;6.72;;;15.50;89.60;;;;;;5062028;28;20490;-69
2021/09/04 06:29:56;;;;;;;14.32;7.97;;;15.60;89.60;;;;;;5062375;28;20072;-69
2021/09/04 06:32:22;;;;;;;12.23;7.18;;;15.60;89.60;;;;;;5063379;28;20413;-70
2021/09/04 06:34:49;;;;;;;13.23;7.10;;;15.60;89.60;;;;;;5063942;28;20035;-69
2021/09/04 06:37:14;;;;;;;14.55;7.70;;;15.70;89.70;;;;;;5061781;28;20123;-69
2021/09/04 06:39:41;;;;;;;12.30;7.30;;;15.70;89.50;;;;;;5057954;28;20142;-69
2021/09/04 06:42:07;;;;;;;13.65;7.45;;;15.70;89.50;;;;;;5064341;28;20099;-69
2021/09/04 06:44:33;;;;;;;15.68;7.85;;;15.80;89.40;;;;;;5062308;28;20044;-69
2021/09/04 06:46:59;;;;;;;15.07;7.70;;;15.70;89.20;;;;;;5061756;28;20041;-69
2021/09/04 06:49:24;;;;;;;16.75;7.88;;;15.80;89.40;;;;;;5062454;28;20143;-69
2021/09/04 06:51:50;;;;;;;13.60;6.88;;;15.80;89.10;;;;;;5058086;28;20222;-70
2021/09/04 06:54:16;;;;;;;15.18;7.88;;;15.90;89.10;;;;;;5059721;28;20028;-71
2021/09/04 06:56:42;;;;;;;14.07;6.90;;;15.90;89.30;;;;;;5061608;28;20028;-71
2021/09/04 06:59:10;;;;;;;14.13;7.60;;;16.00;89.10;;;;;;5062497;28;20048;-71
2021/09/04 07:01:36;;;;;;;15.10;8.55;;;16.00;88.80;;;;;;5061187;28;20035;-71
2021/09/04 07:04:02;;;;;;;14.73;8.05;;;16.10;88.30;;;;;;5063878;28;20016;-75
2021/09/04 07:06:28;;;;;;;13.75;7.30;;;16.10;88.50;;;;;;5070073;28;20035;-73
2021/09/04 07:08:53;;;;;;;17.70;8.27;;;16.10;88.60;;;;;;5067396;28;20064;-69
2021/09/04 07:11:19;;;;;;;17.02;7.22;;;16.10;87.50;;;;;;5065730;28;20020;-73
2021/09/04 07:13:45;;;;;;;15.15;7.03;;;16.10;87.80;;;;;;5062433;28;20025;-74
2021/09/04 07:16:10;;;;;;;16.88;7.82;;;16.10;87.90;;;;;;5067268;28;20402;-75
2021/09/04 07:18:36;;;;;;;14.45;7.68;;;16.20;87.50;;;;;;5061798;28;20066;-74
2021/09/04 07:21:02;;;;;;;12.23;7.10;;;16.20;87.50;;;;;;5069125;28;20067;-75
2021/09/04 07:23:27;;;;;;;14.60;8.50;;;16.20;87.70;;;;;;5067039;28;20029;-75
2021/09/04 07:25:53;;;;;;;14.07;7.22;;;16.20;87.80;;;;;;5064044;28;20514;-75
2021/09/04 07:28:19;;;;;;;13.25;7.13;;;16.30;88.00;;;;;;5065276;28;20098;-75
2021/09/04 07:30:44;;;;;;;12.95;7.20;;;16.30;88.00;;;;;;5061877;28;20028;-73
2021/09/04 07:33:10;;;;;;;12.10;6.60;;;16.40;88.00;;;;;;5065069;28;20578;-71
2021/09/04 07:35:36;;;;;;;14.38;7.35;;;16.40;87.90;;;;;;5059378;28;20174;-69
2021/09/04 07:38:01;;;;;;;11.15;6.72;;;16.50;87.50;;;;;;5059189;28;20025;-69
2021/09/04 07:40:27;;;;;;;11.73;6.70;;;16.50;87.30;;;;;;5060287;28;20025;-70
2021/09/04 07:42:53;;;;;;;15.32;6.78;;;16.60;87.10;;;;;;5057202;28;20036;-70
2021/09/04 07:45:19;;;;;;;12.93;7.13;;;16.50;86.60;;;;;;5063793;28;20035;-71
2021/09/04 07:47:44;;;;;;;12.13;6.40;;;16.50;86.70;;;;;;5060472;28;20069;-70
2021/09/04 07:50:10;;;;;;;12.80;7.05;;;16.50;87.10;;;;;;5055174;28;20170;-70
2021/09/04 07:52:36;;;;;;;10.52;6.28;;;16.50;86.20;;;;;;5059209;28;20040;-71
2021/09/04 07:55:02;;;;;;;10.43;5.30;;;16.50;86.40;;;;;;5060876;28;20036;-71
2021/09/04 07:57:27;;;;;;;9.98;6.00;;;16.60;85.60;;;;;;5061070;28;20474;-71
2021/09/04 07:59:55;;;;;;;12.05;5.97;;;16.70;85.10;;;;;;5063087;28;20146;-71
2021/09/04 08:02:22;;;;;;;12.75;6.30;;;16.80;84.80;;;;;;5062432;28;20032;-73
2021/09/04 08:04:47;;;;;;;8.13;5.35;;;16.70;84.00;;;;;;5068003;28;20104;-74
2021/09/04 08:07:13;;;;;;;8.88;4.47;;;16.70;83.20;;;;;;5061035;28;20127;-69
2021/09/04 08:09:39;;;;;;;10.05;5.65;;;16.70;83.40;;;;;;5059900;28;20044;-69
2021/09/04 08:12:05;;;;;;;8.65;4.78;;;16.80;83.70;;;;;;5058212;28;20033;-69
2021/09/04 08:14:30;;;;;;;9.27;4.40;;;16.80;83.20;;;;;;5062121;28;20025;-69
2021/09/04 08:16:56;;;;;;;12.05;4.80;;;16.80;82.40;;;;;;5062447;28;20033;-69
2021/09/04 08:19:22;;;;;;;9.30;4.70;;;16.80;82.20;;;;;;5062185;28;20029;-69
2021/09/04 08:21:47;;;;;;;8.85;5.35;;;16.80;82.50;;;;;;5045098;28;20163;-69
2021/09/04 08:24:13;;;;;;;8.88;4.72;;;16.80;82.30;;;;;;5064079;28;20431;-69
2021/09/04 08:26:39;;;;;;;7.43;4.10;;;16.90;83.10;;;;;;5060484;28;20075;-69
2021/09/04 08:29:04;;;;;;;7.43;4.50;;;16.90;83.10;;;;;;5062332;28;20036;-69
2021/09/04 08:31:30;;;;;;;11.00;4.32;;;16.90;82.60;;;;;;5062279;28;20032;-69
2021/09/04 08:33:56;;;;;;;7.03;4.38;;;16.90;82.80;;;;;;5061053;28;20111;-69
2021/09/04 08:36:22;;;;;;;8.25;5.05;;;16.90;83.40;;;;;;5060786;28;20360;-70
2021/09/04 08:38:47;;;;;;;7.32;4.20;;;17.00;83.20;;;;;;5061572;28;20359;-69
2021/09/04 08:41:13;;;;;;;9.25;4.72;;;17.00;82.70;;;;;;5063793;28;20082;-70
2021/09/04 08:43:39;;;;;;;10.93;4.55;;;17.10;82.60;;;;;;5061656;28;20037;-69
2021/09/04 08:46:05;;;;;;;7.82;4.93;;;17.20;83.40;;;;;;5064616;28;20426;-70
2021/09/04 08:48:32;;;;;;;11.07;4.75;;;17.20;82.70;;;;;;5083166;28;20055;-70
2021/09/04 08:50:58;;;;;;;13.07;4.85;;;17.30;82.30;;;;;;5061684;28;20051;-69
2021/09/04 08:53:26;;;;;;;9.48;4.63;;;17.30;82.00;;;;;;5060381;28;20482;-69
2021/09/04 08:55:51;;;;;;;8.25;4.43;;;17.30;82.50;;;;;;5062921;28;20028;-69
2021/09/04 08:58:17;;;;;;;9.02;4.50;;;17.40;82.70;;;;;;5061390;28;20073;-70
2021/09/04 09:00:44;;;;;;;10.50;5.10;;;17.50;83.10;;;;;;5060806;28;20033;-69
2021/09/04 09:03:25;;;;;;;7.60;4.28;;;17.60;82.50;;;;;;5062288;28;20521;-69
2021/09/04 09:05:51;;;;;;;;;;;17.60;83.20;;;;;;5063056;28;20084;-69
2021/09/04 09:08:22;;;;;;;8.15;4.25;;;17.50;82.80;;;;;;5059904;28;19962;-69
2021/09/04 09:10:48;;;;;;;8.00;4.50;;;17.60;83.20;;;;;;5061692;28;20028;-69
2021/09/04 09:13:19;;;;;;;7.60;4.38;;;17.60;83.50;;;;;;5060270;28;20021;-69
2021/09/04 09:15:45;;;;;;;9.50;4.78;;;17.70;83.50;;;;;;5063008;28;20029;-70
2021/09/04 09:18:12;;;;;;;6.68;4.63;;;17.70;83.00;;;;;;5058617;28;20017;-69
2021/09/04 09:21:02;;;;;;;8.10;4.97;;;17.70;83.40;;;;;;5072213;28;20027;-69
2021/09/04 09:23:28;;;;;;;7.40;3.97;;;17.70;83.60;;;;;;5046919;28;20067;-69
2021/09/04 09:25:54;;;;;;;10.15;4.70;;;17.70;83.90;;;;;;5063666;28;20486;-69
2021/09/04 09:28:23;;;;;;;7.22;4.47;;;17.70;83.70;;;;;;5043787;28;20071;-69
2021/09/04 09:30:55;;;;;;;6.50;3.80;;;17.90;84.00;;;;;;5064478;28;20036;-69
2021/09/04 09:33:24;;;;;;;7.43;4.60;;;18.00;83.80;;;;;;5050514;28;20116;-70
2021/09/04 09:35:49;;;;;;;10.25;5.03;;;18.00;83.60;;;;;;5064380;28;20035;-70
2021/09/04 09:38:18;;;;;;;9.80;5.20;;;18.00;83.30;;;;;;5061653;28;20405;-69
2021/09/04 09:40:43;;;;;;;9.05;5.35;;;18.00;83.50;;;;;;5061158;28;20025;-69
2021/09/04 09:43:15;;;;;;;7.43;4.28;;;18.10;83.50;;;;;;5067622;28;20374;-69
2021/09/04 09:45:46;;;;;;;;;;;18.20;83.50;;;;;;5063888;28;20115;-69
2021/09/04 09:48:12;;;;;;;;;;;18.40;83.30;;;;;;5064734;28;19935;-70
2021/09/04 09:50:38;;;;;;;7.15;4.68;;;18.50;82.40;;;;;;5061087;28;19951;-70
2021/09/04 09:53:05;;;;;;;8.95;4.15;;;18.60;82.20;;;;;;5067026;28;20040;-69
2021/09/04 09:55:32;;;;;;;8.32;4.40;;;18.70;82.00;;;;;;5064638;28;20029;-69
2021/09/04 09:57:58;;;;;;;7.72;4.10;;;18.70;81.70;;;;;;5063966;28;20025;-69
2021/09/04 10:00:26;;;;;;;7.30;4.05;;;18.70;81.80;;;;;;5060531;28;20467;-70
2021/09/04 10:02:55;;;;;;;7.75;4.53;;;18.70;81.80;;;;;;5059697;28;20085;-69
2021/09/04 10:05:25;;;;;;;7.20;4.00;;;18.80;82.00;;;;;;5060360;28;20032;-69
2021/09/04 10:07:53;;;;;;;7.82;4.15;;;18.90;82.00;;;;;;5063240;28;20060;-69
2021/09/04 10:10:20;;;;;;;8.60;4.97;;;18.90;81.80;;;;;;5059233;28;20028;-69
2021/09/04 10:12:48;;;;;;;8.18;5.03;;;18.80;81.10;;;;;;5059560;28;20586;-69
2021/09/04 10:15:13;;;;;;;7.35;4.22;;;18.70;81.40;;;;;;5062231;28;20040;-69
2021/09/04 10:17:40;;;;;;;9.63;4.45;;;18.60;81.60;;;;;;5058766;28;20021;-69
2021/09/04 10:20:07;;;;;;;8.05;4.32;;;18.50;82.00;;;;;;5063057;28;20032;-69
2021/09/04 10:22:33;;;;;;;9.90;4.60;;;18.40;81.90;;;;;;5063154;28;20559;-70
2021/09/04 10:25:02;;;;;;;9.25;3.95;;;18.40;82.00;;;;;;5059331;28;20068;-69
2021/09/04 10:27:34;;;;;;;9.20;4.10;;;18.60;82.10;;;;;;5063672;28;20033;-69
2021/09/04 10:30:38;;;;;;;7.45;4.65;;;18.90;81.90;;;;;;5063892;28;20565;-69
2021/09/04 10:33:05;;;;;;;7.82;4.32;;;18.90;81.40;;;;;;5065217;28;20111;-69
2021/09/04 10:35:51;;;;;;;11.80;5.28;;;19.00;81.40;;;;;;5067639;28;20283;-70
2021/09/04 10:38:19;;;;;;;8.45;4.93;;;19.10;81.40;;;;;;5067349;28;20554;-69
2021/09/04 10:40:50;;;;;;;9.25;4.80;;;19.00;81.80;;;;;;5066052;28;20028;-69
2021/09/04 10:43:18;;;;;;;9.13;4.57;;;19.00;82.00;;;;;;5067794;28;20059;-69
2021/09/04 10:45:47;;;;;;;9.73;4.72;;;18.90;82.00;;;;;;5067363;28;20040;-70
2021/09/04 10:48:18;;;;;;;9.10;5.28;;;19.00;82.60;;;;;;5065595;28;20536;-69
2021/09/04 10:51:01;;;;;;;7.35;4.47;;;18.90;82.40;;;;;;5063455;28;20027;-69
2021/09/04 10:53:46;;;;;;;8.77;4.18;;;18.90;82.60;;;;;;5064646;28;20520;-68
2021/09/04 10:56:29;;;;;;;6.97;3.95;;;19.00;82.60;;;;;;5065456;28;20033;-69
2021/09/04 10:58:55;;;;;;;9.20;4.32;;;19.10;82.10;;;;;;5063627;28;20036;-69
2021/09/04 11:01:48;;;;;;;10.98;4.13;;;19.20;81.70;;;;;;5065519;28;20020;-69
2021/09/04 11:04:14;;;;;;;10.48;4.22;;;19.40;81.30;;;;;;5067588;28;20076;-69
2021/09/04 11:06:47;;;;;;;7.95;4.60;;;19.60;80.50;;;;;;5066079;28;20061;-68
2021/09/04 11:09:13;;;;;;;6.85;3.75;;;19.80;79.60;;;;;;5065853;28;20032;-69
2021/09/04 11:11:39;;;;;;;9.65;4.40;;;20.00;79.30;;;;;;5064639;28;20036;-70
2021/09/04 11:14:24;;;;;;;8.38;4.18;;;20.20;78.90;;;;;;5063093;28;20033;-70
2021/09/04 11:16:54;;;;;;;7.60;4.25;;;21.00;76.10;;;;;;5063522;28;20052;-69
2021/09/04 11:19:34;;;;;;;9.13;4.17;;;21.40;74.80;;;;;;5064113;28;20104;-70
2021/09/04 11:22:06;;;;;;;8.52;4.38;;;22.10;73.80;;;;;;5062937;28;20279;-69
2021/09/04 11:24:38;;;;;;;5.95;3.63;;;22.50;71.20;;;;;;5063052;28;20497;-69
2021/09/04 11:27:05;;;;;;;8.05;3.83;;;22.30;70.30;;;;;;5062501;28;20040;-69
2021/09/04 11:29:54;;;;;;;8.68;3.88;;;22.10;71.50;;;;;;5061372;28;20052;-70
2021/09/04 11:32:24;;;;;;;4.97;3.03;;;23.80;67.90;;;;;;5065570;28;20070;-69
2021/09/04 11:34:53;;;;;;;6.20;3.40;;;25.60;60.50;;;;;;5064717;28;20024;-70
2021/09/04 11:37:28;;;;;;;7.90;3.35;;;25.90;57.80;;;;;;5061844;28;20514;-69
2021/09/04 11:39:56;;;;;;;6.72;3.30;;;26.30;55.30;;;;;;5064874;28;20033;-69
2021/09/04 11:42:28;;;;;;;7.05;3.55;;;27.10;53.90;;;;;;5067389;28;20033;-69
2021/09/04 11:45:06;;;;;;;5.90;3.53;;;28.10;50.80;;;;;;5062206;28;20040;-69
2021/09/04 11:47:34;;;;;;;6.35;3.08;;;29.00;48.40;;;;;;5065257;28;20052;-69
2021/09/04 11:50:02;;;;;;;7.68;4.15;;;29.40;46.30;;;;;;5064061;28;20505;-70
2021/09/04 11:52:28;;;;;;;5.32;2.83;;;29.00;45.70;;;;;;5068404;28;20028;-70
2021/09/04 11:55:06;;;;;;;5.10;2.80;;;28.20;46.50;;;;;;5065354;28;20029;-70
2021/09/04 11:57:35;;;;;;;6.55;2.88;;;28.20;47.70;;;;;;5067482;28;20025;-69
2021/09/04 12:00:04;;;;;;;5.18;2.65;;;28.10;47.40;;;;;;5066939;28;20021;-70
2021/09/04 12:02:30;;;;;;;4.80;2.75;;;28.10;47.40;;;;;;5066309;28;20040;-70
2021/09/04 12:05:02;;;;;;;5.13;2.60;;;28.20;47.20;;;;;;5063331;28;20027;-70
2021/09/04 12:07:28;;;;;;;4.72;2.60;;;27.80;47.80;;;;;;5062421;28;20112;-70
2021/09/04 12:09:56;;;;;;;4.82;3.03;;;27.20;48.40;;;;;;5064822;28;20025;-71
2021/09/04 12:12:27;;;;;;;6.60;2.78;;;26.30;50.10;;;;;;5064637;28;20207;-70
2021/09/04 12:14:54;;;;;;;4.97;2.80;;;25.30;51.10;;;;;;5085906;28;20064;-71
2021/09/04 12:17:20;;;;;;;5.28;2.45;;;24.20;53.70;;;;;;5064210;28;20028;-70
2021/09/04 12:19:45;;;;;;;4.55;2.40;;;23.50;56.10;;;;;;5062880;28;20024;-68
2021/09/04 12:22:11;;;;;;;5.93;2.90;;;22.70;57.50;;;;;;5062409;28;20040;-69
2021/09/04 12:24:37;;;;;;;5.93;2.83;;;22.30;59.50;;;;;;5062980;28;20059;-69
2021/09/04 12:27:03;;;;;;;5.10;2.60;;;22.10;61.10;;;;;;5063256;28;20024;-69
2021/09/04 12:29:30;;;;;;;5.70;2.75;;;21.80;61.50;;;;;;5063685;28;20107;-68
2021/09/04 12:32:11;;;;;;;4.25;2.85;;;21.70;62.00;;;;;;5063590;28;20128;-69
2021/09/04 12:34:39;;;;;;;3.70;2.40;;;21.60;62.70;;;;;;5064204;28;20056;-69
2021/09/04 12:37:26;;;;;;;5.03;2.40;;;21.60;63.60;;;;;;5061923;28;20029;-68
2021/09/04 12:40:03;;;;;;;4.90;2.47;;;21.90;63.90;;;;;;5061893;28;20062;-69
2021/09/04 12:42:29;;;;;;;4.47;2.47;;;22.30;61.50;;;;;;5063591;28;20045;-69
2021/09/04 12:45:05;;;;;;;4.05;2.40;;;22.40;61.40;;;;;;5062047;28;20078;-69